Archival Weather

Wadi Al Dawasir

Wadi Al Dawasir, Saudi Arabia (OEWD)

Report from: Thursday, February 22, 2024 2:00 PM +03
Current time: Wednesday, April 24, 2024 10:46 PM +03

Current weather – Weather history – Daily summaries
Weather forecast

Temperature26.0°C (78.8°F)
Dew point-1.0°C (30.2°F)
Winds 12 kts (6.2 m/s, 13.8 mph) Southeast (130°)
Clouds Sky clear
Altimeter30.03 in.Hg (1017 mB)
Relative humidity17 %
Density altitude1,238 ft. (377 m)
Remarks Ceiling and visibility OK
Flight conditions Visual Meteorological Conditions
Raw dataOEWD 221100Z 13012KT CAVOK 26/M01 Q1017
An error has occurred. This application may no longer respond until reloaded. Reload 🗙